Terminal Aerodrome Forecast
Issued by NWS

Home | Current Version | Previous Version | Text Only | Print | Product List | Glossary On
Versions: 1 2 3 4 5 6 7 8 9 10 11 12 13 14 15 16 17 18 19
000
FTUS43 KBIS 132332
TAFMOT
TAF
KMOT 132332Z 1400/1424 13012KT 3/4SM -SN OVC012
     FM140400 12011KT 1SM -SN OVC015
     FM140700 25007KT P6SM VCSH OVC015
     FM141100 29009KT P6SM OVC010
     FM141900 28011KT P6SM BKN040=

USA.gov is the U.S. government's official web portal to all federal, state and local government web resources and services.